Hughes, AK

9:24 PM AKST on December 26, 2014 (GMT -0900)
Indian Mountain | Change Station
CLOSE
Current Station
Airport
Location: Indian Mountain,
Elevation: 1276 ft
Nearby Weather Stations

Elev 1276 ft 65.99 °N, 153.70 °W | Updated 14 minutes ago

Light Snow
Light Snow Mist
3 °F
Feels Like -10 °F
N
8
Wind Variable Wind from WSW

Today
High -- | Low -- °F
--% Chance of Precip.
Yesterday
High -- | Low -- °F
Precip. -- in
11:49 AM 2:41 PM
Waxing Crescent, 33% visible
Pressure 30.12 in
Visibility 3.0 miles
Clouds Overcast 1500 ft
Windchill -10 °F
Dew Point 0 °F
Humidity 85%
Rainfall 0.08 in
Snow Depth Not available.
UV 0 out of 12
Pollen Not available.
Air Quality Not available.
Flu Activity Not available.
SPECI PAIM 270610Z AUTO 25007KT 220V290 3SM -SN BR OVC015 M16/M18 A3000 RMK AO2 SLP198

More Conditions Fewer Conditions

Pressure 30.12 in
Visibility 3.0 miles
Clouds Overcast 1500 ft
Windchill -10 °F
Dew Point 0 °F
Humidity 85%
Rainfall 0.08 in
Snow Depth Not available.
UV 0 out of 12
Pollen Not available.
Air Quality Not available.
Flu Activity Not available.
SPECI PAIM 270610Z AUTO 25007KT 220V290 3SM -SN BR OVC015 M16/M18 A3000 RMK AO2 SLP198

More Conditions Fewer Conditions

10-Day Weather Forecast

Almanac

Astronomy

Dec. 26, 2014 Rise Set
Actual Time
Civil Twilight
Nautical Twilight
Astronomical Twilight
Moon
Length of Visible Light
Length of Day
Tomorrow will be .
, % of the Moon is Illuminated

Today's Extremes

State Highs State Lows

Community

WunderPhotos

Upload Photos

1,780,855 photos uploaded!

WunderBlogs® & News

Nearby

Air Quality

  Air Quality AQ Index Pollutant
Not available.

Snow Depth

Station Depth Elevation

Earthquake Activity

City Distance Mag. Time & Date
Minimum magnitude displayed is 2.5.

Coastal Water Temperatures

Place Temperature

Nearby Weather Stations